createdAt,value
2018-05-12T07:39:48.052Z,12628
2018-05-12T07:40:49.945Z,12104
2018-05-12T07:41:51.849Z,11536
2018-05-12T07:42:53.745Z,11440
2018-05-12T07:43:55.554Z,11740
2018-05-12T07:44:57.366Z,12272
2018-05-12T07:45:59.279Z,12928
2018-05-12T07:47:01.167Z,13400
2018-05-12T07:48:03.078Z,13732
2018-05-12T07:49:17.193Z,13700
2018-05-12T07:50:19.079Z,12916
2018-05-12T07:51:20.973Z,11788
2018-05-12T07:52:22.850Z,10832
2018-05-12T07:53:24.689Z,10268
2018-05-12T07:54:26.571Z,10272
2018-05-12T07:55:28.541Z,10864
2018-05-12T07:56:30.492Z,11744
2018-05-12T07:57:32.361Z,12540
2018-05-12T07:58:46.740Z,12720
2018-05-12T07:59:48.693Z,12764
2018-05-12T08:00:50.577Z,13180
2018-05-12T08:01:52.510Z,13172
2018-05-12T08:02:54.370Z,12624
2018-05-12T08:03:56.181Z,12216
2018-05-12T08:04:58.060Z,12344
2018-05-12T08:05:59.937Z,12556
2018-05-12T08:07:01.837Z,12696
2018-05-12T08:08:15.987Z,13068
2018-05-12T08:09:17.868Z,12916
2018-05-12T08:10:19.797Z,12624
2018-05-12T08:11:21.696Z,12644
2018-05-12T08:12:23.517Z,12960
2018-05-12T08:13:25.401Z,13096
2018-05-12T08:14:27.245Z,13076
2018-05-12T08:15:29.157Z,12952
2018-05-12T08:16:31.033Z,12408
2018-05-12T08:17:45.188Z,11580
2018-05-12T08:18:47.070Z,11412
2018-05-12T08:19:49.250Z,11404
2018-05-12T08:20:51.214Z,11336
2018-05-12T08:21:53.049Z,11640
2018-05-12T08:22:54.868Z,12552
2018-05-12T08:23:56.798Z,13152
2018-05-12T08:24:58.668Z,13304
2018-05-12T08:26:00.629Z,13676
2018-05-12T08:27:14.820Z,13640
2018-05-12T08:28:16.715Z,13444
2018-05-12T08:29:18.608Z,13440
2018-05-12T08:30:20.497Z,13224
2018-05-12T08:31:22.339Z,12896
2018-05-12T08:32:24.154Z,12636
2018-05-12T08:33:26.039Z,12456
2018-05-12T08:34:27.919Z,12508
2018-05-12T08:35:29.821Z,12736
2018-05-12T08:36:44.009Z,12992
2018-05-12T08:37:45.891Z,12912
2018-05-12T08:38:47.795Z,12876
2018-05-12T08:39:49.703Z,12848
2018-05-12T08:40:51.516Z,12792
2018-05-12T08:41:53.332Z,13132
2018-05-12T08:42:55.220Z,13696
2018-05-12T08:43:57.080Z,13032
2018-05-12T08:44:58.985Z,11752
2018-05-12T08:46:13.164Z,11152
2018-05-12T08:47:15.083Z,11204
2018-05-12T08:48:16.981Z,11672
2018-05-12T08:49:18.848Z,12108
2018-05-12T08:50:20.689Z,12016
2018-05-12T08:51:22.525Z,11656
2018-05-12T08:52:24.460Z,11868
2018-05-12T08:53:26.342Z,12216
2018-05-12T08:54:28.254Z,12512
2018-05-12T08:55:42.433Z,12212
2018-05-12T08:56:44.335Z,11976
2018-05-12T08:57:46.221Z,12688
2018-05-12T08:58:48.128Z,14172
2018-05-12T08:59:49.970Z,14588
2018-05-12T09:00:51.811Z,14048
2018-05-12T09:01:53.687Z,13428
2018-05-12T09:02:55.572Z,13472
2018-05-12T09:03:57.474Z,13424
2018-05-12T09:05:11.651Z,13724
2018-05-12T09:06:13.551Z,13548
2018-05-12T09:07:15.544Z,12756
2018-05-12T09:08:17.315Z,12236
2018-05-12T09:09:19.129Z,12112
2018-05-12T09:10:21.011Z,12444
2018-05-12T09:11:22.897Z,12828
2018-05-12T09:12:24.803Z,13060
2018-05-12T09:13:26.746Z,13616
2018-05-12T09:14:40.886Z,14608
2018-05-12T09:15:42.710Z,15392
2018-05-12T09:16:44.545Z,15840
2018-05-12T09:17:46.434Z,15940
2018-05-12T09:18:48.354Z,16352
2018-05-12T09:19:50.750Z,16448
2018-05-12T09:20:52.529Z,16288
2018-05-12T09:21:54.376Z,15972
2018-05-12T09:22:56.325Z,15128
2018-05-12T09:24:10.552Z,13960
2018-05-12T09:25:12.487Z,14052
2018-05-12T09:26:14.353Z,14284
2018-05-12T09:27:16.259Z,14012
2018-05-12T09:28:18.095Z,13436
2018-05-12T09:29:19.907Z,12796
2018-05-12T09:30:21.790Z,12540
2018-05-12T09:31:23.669Z,12724
2018-05-12T09:32:25.559Z,13048
2018-05-12T09:33:39.735Z,13528
2018-05-12T09:34:41.612Z,13960
2018-05-12T09:35:43.487Z,14184
2018-05-12T09:36:45.368Z,14388
2018-05-12T09:37:47.188Z,14448
2018-05-12T09:38:49.018Z,14740
2018-05-12T09:39:50.912Z,15560
2018-05-12T09:40:52.821Z,16256
2018-05-12T09:41:54.696Z,16320
2018-05-12T09:43:08.851Z,15192
2018-05-12T09:44:10.731Z,14496
2018-05-12T09:45:12.612Z,14404
2018-05-12T09:46:14.497Z,14488
2018-05-12T09:47:16.339Z,14348
2018-05-12T09:48:18.180Z,14140
2018-05-12T09:49:20.067Z,13876
2018-05-12T09:50:21.943Z,14000
2018-05-12T09:51:23.828Z,14132
2018-05-12T09:52:38.006Z,14368
2018-05-12T09:53:39.907Z,14236
2018-05-12T09:54:41.812Z,14232
2018-05-12T09:55:43.718Z,14136
2018-05-12T09:56:45.528Z,13796
2018-05-12T09:57:47.346Z,13864
2018-05-12T09:58:49.237Z,14460
2018-05-12T09:59:51.134Z,15008
2018-05-12T10:00:53.044Z,15268
2018-05-12T10:02:07.195Z,15872
2018-05-12T10:03:09.086Z,16736
2018-05-12T10:04:10.965Z,17472
2018-05-12T10:05:12.859Z,17920
2018-05-12T10:06:14.712Z,17920
2018-05-12T10:07:16.559Z,17856
2018-05-12T10:08:18.463Z,18016
2018-05-12T10:09:20.372Z,17952
2018-05-12T10:10:22.278Z,17888
2018-05-12T10:11:36.446Z,17984
2018-05-12T10:12:38.350Z,17792
2018-05-12T10:13:40.231Z,17984
2018-05-12T10:14:42.138Z,18432
2018-05-12T10:15:43.972Z,18432
2018-05-12T10:16:45.814Z,18176
2018-05-12T10:17:47.718Z,18144
2018-05-12T10:18:49.608Z,17536
2018-05-12T10:19:51.517Z,17216
2018-05-12T10:21:05.687Z,17056
2018-05-12T10:22:07.568Z,16864
2018-05-12T10:23:09.477Z,16960
2018-05-12T10:24:11.374Z,17440
2018-05-12T10:25:13.225Z,16576
2018-05-12T10:26:15.155Z,14676
2018-05-12T10:27:16.961Z,13600
2018-05-12T10:28:18.848Z,13252
2018-05-12T10:29:20.755Z,11008
2018-05-12T10:30:34.906Z,9888
2018-05-12T10:31:36.793Z,10920
2018-05-12T10:32:38.700Z,10732
2018-05-12T10:33:40.605Z,10128
2018-05-12T10:34:42.442Z,10088
2018-05-12T10:35:44.279Z,9448
2018-05-12T10:36:46.278Z,9620
2018-05-12T10:37:48.291Z,10644
2018-05-12T10:38:50.252Z,11772
2018-05-12T10:40:04.591Z,11416
2018-05-12T10:41:06.570Z,12560
2018-05-12T10:42:08.566Z,12712
2018-05-12T10:43:10.575Z,11632
2018-05-12T10:44:12.529Z,10124
2018-05-12T10:45:14.482Z,9044
2018-05-12T10:46:16.488Z,8072
2018-05-12T10:47:18.459Z,8080
2018-05-12T10:48:20.474Z,8264
2018-05-12T10:49:34.772Z,7796
2018-05-12T10:50:36.730Z,7880
2018-05-12T10:51:38.736Z,9160
2018-05-12T10:52:40.739Z,10548
2018-05-12T10:53:42.664Z,12276
2018-05-12T10:54:45.266Z,14144
2018-05-12T10:55:47.224Z,15388
2018-05-12T10:56:49.227Z,16160
2018-05-12T10:57:51.279Z,15204
2018-05-12T10:59:05.558Z,13772
2018-05-12T11:00:07.581Z,12904
2018-05-12T11:01:09.536Z,11344
2018-05-12T11:02:11.503Z,9604
2018-05-12T11:03:13.487Z,8436
2018-05-12T11:04:15.410Z,7496
2018-05-12T11:05:17.403Z,7112
2018-05-12T11:06:19.457Z,7212
2018-05-12T11:07:21.441Z,7520
2018-05-12T11:08:35.808Z,8032
2018-05-12T11:09:37.883Z,8280
2018-05-12T11:10:39.818Z,8616
2018-05-12T11:11:41.769Z,9128
2018-05-12T11:12:43.668Z,10248
2018-05-12T11:13:45.570Z,11952
2018-05-12T11:14:47.571Z,12568
2018-05-12T11:15:49.647Z,13388
2018-05-12T11:16:51.630Z,15968
2018-05-12T11:18:05.887Z,16032
2018-05-12T11:19:07.941Z,14088
2018-05-12T11:20:09.989Z,12704
2018-05-12T11:21:11.881Z,10564
2018-05-12T11:22:13.815Z,9420
2018-05-12T11:23:15.767Z,8272
2018-05-12T11:24:17.791Z,7396
2018-05-12T11:25:19.752Z,6948
2018-05-12T11:26:21.713Z,7388
2018-05-12T11:27:35.946Z,8840
2018-05-12T11:28:37.964Z,9968
2018-05-12T11:29:39.975Z,10676
2018-05-12T11:30:41.979Z,10900
2018-05-12T11:31:43.890Z,10444
2018-05-12T11:32:45.834Z,9584
2018-05-12T11:33:47.804Z,8760
2018-05-12T11:34:49.870Z,9232
2018-05-12T11:35:51.867Z,9952
2018-05-12T11:37:06.153Z,9444
2018-05-12T11:38:08.180Z,8440
2018-05-12T11:39:10.171Z,7916
2018-05-12T11:40:12.161Z,7748
2018-05-12T11:41:14.098Z,7600
2018-05-12T11:42:16.009Z,7876
2018-05-12T11:43:17.961Z,8476
2018-05-12T11:44:20.063Z,8904
2018-05-12T11:45:21.995Z,7732
2018-05-12T11:46:36.216Z,8312
2018-05-12T11:47:38.218Z,8600
2018-05-12T11:48:40.251Z,8572
2018-05-12T11:49:42.221Z,9176
2018-05-12T11:50:44.148Z,10468
2018-05-12T11:51:46.094Z,10736
2018-05-12T11:52:48.099Z,9732
2018-05-12T11:53:50.110Z,9072
2018-05-12T11:54:52.124Z,9572
2018-05-12T11:56:06.458Z,10244
2018-05-12T11:57:08.468Z,10588
2018-05-12T11:58:10.517Z,10744
2018-05-12T11:59:12.474Z,10716
2018-05-12T12:00:14.344Z,10008
2018-05-12T12:01:16.263Z,8440
2018-05-12T12:02:18.390Z,7912
2018-05-12T12:03:20.407Z,8148
2018-05-12T12:04:22.412Z,8360
2018-05-12T12:05:36.681Z,7968
2018-05-12T12:06:38.759Z,7644
2018-05-12T12:07:40.705Z,7788
2018-05-12T12:08:42.686Z,7916
2018-05-12T12:09:44.619Z,7560
2018-05-12T12:10:46.579Z,7912
2018-05-12T12:11:48.578Z,8560
2018-05-12T12:12:50.543Z,9664
2018-05-12T12:13:52.515Z,10636
2018-05-12T12:15:06.788Z,12136
2018-05-12T12:16:08.801Z,13552
2018-05-12T12:17:10.875Z,13836
2018-05-12T12:18:13.104Z,12588
2018-05-12T12:19:15.023Z,10892
2018-05-12T12:20:16.960Z,9784
2018-05-12T12:21:19.150Z,9108
2018-05-12T12:22:21.187Z,8524
2018-05-12T12:23:23.161Z,8176
2018-05-12T12:24:37.486Z,8552
2018-05-12T12:25:39.447Z,9212
2018-05-12T12:26:41.500Z,10248
2018-05-12T12:27:43.495Z,11536
2018-05-12T12:28:45.447Z,13608
2018-05-12T12:29:47.363Z,14028
2018-05-12T12:30:49.362Z,13652
2018-05-12T12:31:51.409Z,12724
2018-05-12T12:32:53.399Z,11620
2018-05-12T12:34:07.684Z,10876
2018-05-12T12:35:09.649Z,9988
2018-05-12T12:36:11.606Z,8588
2018-05-12T12:37:13.601Z,7768
2018-05-12T12:38:15.517Z,8040
2018-05-12T12:39:17.479Z,8680
2018-05-12T12:40:19.471Z,9308
2018-05-12T12:41:21.496Z,9864
2018-05-12T12:42:23.517Z,10268
2018-05-12T12:43:37.834Z,10644
2018-05-12T12:44:39.784Z,10832
2018-05-12T12:45:41.747Z,10888
2018-05-12T12:46:43.745Z,10976
2018-05-12T12:47:45.662Z,10968
2018-05-12T12:48:47.619Z,10868
2018-05-12T12:49:49.618Z,10872
2018-05-12T12:50:51.644Z,10732
2018-05-12T12:51:53.627Z,10544
2018-05-12T12:53:07.952Z,10464
2018-05-12T12:54:09.965Z,10840
2018-05-12T12:55:11.966Z,11616
2018-05-12T12:56:14.229Z,12636
2018-05-12T12:57:16.199Z,12048
2018-05-12T12:58:18.122Z,11276
2018-05-12T12:59:20.079Z,10228
2018-05-12T13:00:22.069Z,9008
2018-05-12T13:01:24.010Z,8376
2018-05-12T13:02:38.393Z,8588
2018-05-12T13:03:40.401Z,8728
2018-05-12T13:04:42.407Z,9096
2018-05-12T13:05:44.364Z,9628
2018-05-12T13:06:46.297Z,10112
2018-05-12T13:07:48.263Z,10752
2018-05-12T13:08:50.242Z,11624
2018-05-12T13:09:52.393Z,11532
2018-05-12T13:10:54.393Z,11196
2018-05-12T13:12:08.659Z,10648
2018-05-12T13:13:10.694Z,9500
2018-05-12T13:14:12.613Z,8536
2018-05-12T13:15:14.617Z,8452
2018-05-12T13:16:16.507Z,9048
2018-05-12T13:17:18.412Z,9992
2018-05-12T13:18:20.397Z,10728
2018-05-12T13:19:22.370Z,11316
2018-05-12T13:20:24.413Z,11476
2018-05-12T13:21:38.733Z,10708
2018-05-12T13:22:40.736Z,9868
2018-05-12T13:23:42.746Z,8952
2018-05-12T13:24:44.721Z,8200
2018-05-12T13:25:46.704Z,8064
2018-05-12T13:26:48.612Z,8116
2018-05-12T13:27:50.688Z,8112
2018-05-12T13:28:52.544Z,8092
2018-05-12T13:29:54.457Z,8460
2018-05-12T13:31:08.600Z,9184
2018-05-12T13:32:10.483Z,9328
2018-05-12T13:33:12.384Z,9856
2018-05-12T13:34:14.267Z,10328
2018-05-12T13:35:16.109Z,10644
2018-05-12T13:36:17.945Z,10956
2018-05-12T13:37:19.850Z,11280
2018-05-12T13:38:21.737Z,11608
2018-05-12T13:39:23.617Z,11680
2018-05-12T13:40:37.804Z,11772
2018-05-12T13:41:39.713Z,11380
2018-05-12T13:42:41.671Z,10680
2018-05-12T13:43:43.532Z,10308
2018-05-12T13:44:45.375Z,10844
2018-05-12T13:45:47.209Z,10848
2018-05-12T13:46:49.118Z,10688
2018-05-12T13:47:51.019Z,10956
2018-05-12T13:48:52.896Z,11696
2018-05-12T13:50:07.055Z,12584
2018-05-12T13:51:08.936Z,13304
2018-05-12T13:52:10.817Z,13500
2018-05-12T13:53:12.702Z,12540
2018-05-12T13:54:14.577Z,11172
2018-05-12T13:55:16.395Z,10300
2018-05-12T13:56:18.282Z,9836
2018-05-12T13:57:20.200Z,9528
2018-05-12T13:58:22.109Z,10356
2018-05-12T13:59:36.260Z,11028
2018-05-12T14:00:38.148Z,10788
2018-05-12T14:01:40.029Z,10036
2018-05-12T14:02:41.943Z,9256
2018-05-12T14:03:43.769Z,9052
2018-05-12T14:04:45.582Z,9384
2018-05-12T14:05:47.468Z,10120
2018-05-12T14:06:49.356Z,10880
2018-05-12T14:07:51.259Z,11436
2018-05-12T14:09:05.440Z,11028
2018-05-12T14:10:07.320Z,10708
2018-05-12T14:11:09.195Z,10588
2018-05-12T14:12:11.088Z,11012
2018-05-12T14:13:12.928Z,11956
2018-05-12T14:14:14.760Z,12008
2018-05-12T14:15:16.648Z,12660
2018-05-12T14:16:18.534Z,13576
2018-05-12T14:17:20.418Z,14108
2018-05-12T14:18:34.574Z,13788
2018-05-12T14:19:36.456Z,13508
2018-05-12T14:20:38.341Z,13284
2018-05-12T14:21:40.246Z,12864
2018-05-12T14:22:42.064Z,12236
2018-05-12T14:23:43.884Z,11532
2018-05-12T14:24:45.792Z,11208
2018-05-12T14:25:47.675Z,11816
2018-05-12T14:26:49.575Z,12012
2018-05-12T14:28:03.744Z,11392
2018-05-12T14:29:05.698Z,11272
2018-05-12T14:30:07.559Z,11436
2018-05-12T14:31:09.469Z,11600
2018-05-12T14:32:11.308Z,11576
2018-05-12T14:33:13.120Z,11412
2018-05-12T14:34:15.010Z,11116
2018-05-12T14:35:16.932Z,10900
2018-05-12T14:36:18.793Z,10768
2018-05-12T14:37:32.973Z,10600
2018-05-12T14:38:34.886Z,10448
2018-05-12T14:39:36.800Z,10384
2018-05-12T14:40:38.679Z,10416
2018-05-12T14:41:40.500Z,10464
2018-05-12T14:42:42.377Z,10516
2018-05-12T14:43:44.223Z,10612
2018-05-12T14:44:46.126Z,10884
2018-05-12T14:45:48.012Z,10860
2018-05-12T14:47:02.172Z,10964
2018-05-12T14:48:04.080Z,11120
2018-05-12T14:49:05.957Z,11068
2018-05-12T14:50:07.841Z,10956
2018-05-12T14:51:09.661Z,11148
2018-05-12T14:52:11.496Z,11516
2018-05-12T14:53:13.377Z,11920
2018-05-12T14:54:15.264Z,11968
2018-05-12T14:55:17.163Z,11920
2018-05-12T14:56:31.293Z,11952
2018-05-12T14:57:33.175Z,12152
2018-05-12T14:58:35.078Z,12364
2018-05-12T14:59:36.964Z,12308
2018-05-12T15:00:38.799Z,12444
2018-05-12T15:01:40.620Z,12444
2018-05-12T15:02:42.523Z,12268
2018-05-12T15:03:44.433Z,12392
2018-05-12T15:04:46.346Z,12584
2018-05-12T15:06:00.524Z,12428
2018-05-12T15:07:02.406Z,12360
2018-05-12T15:08:04.283Z,12352
2018-05-12T15:09:06.171Z,12256
2018-05-12T15:10:08.008Z,12068
2018-05-12T15:11:09.824Z,11980
2018-05-12T15:12:11.725Z,11964
2018-05-12T15:13:13.612Z,11936
2018-05-12T15:14:15.496Z,11868
2018-05-12T15:15:29.675Z,11656
2018-05-12T15:16:31.556Z,11724
2018-05-12T15:17:33.432Z,11616
2018-05-12T15:18:35.321Z,11432
2018-05-12T15:19:37.160Z,11384
2018-05-12T15:20:38.981Z,11292
2018-05-12T15:21:40.869Z,11208
2018-05-12T15:22:42.731Z,11096
2018-05-12T15:23:44.550Z,11004
2018-05-12T15:24:58.768Z,10672
2018-05-12T15:26:00.646Z,10408
2018-05-12T15:27:02.534Z,10236
2018-05-12T15:28:04.412Z,9960
2018-05-12T15:29:06.250Z,9700
2018-05-12T15:30:08.065Z,9472
2018-05-12T15:31:09.947Z,9296
2018-05-12T15:32:11.830Z,9040
2018-05-12T15:33:13.712Z,8952
2018-05-12T15:34:27.888Z,8940
2018-05-12T15:35:29.792Z,8832
2018-05-12T15:36:31.669Z,8704
2018-05-12T15:37:33.556Z,8664
2018-05-12T15:38:35.371Z,8584
2018-05-12T15:39:37.189Z,8416
2018-05-12T15:40:39.091Z,8300
2018-05-12T15:41:40.974Z,8220
2018-05-12T15:42:42.879Z,8152
2018-05-12T15:43:57.096Z,8120
2018-05-12T15:44:58.933Z,8012
2018-05-12T15:46:00.814Z,7856
2018-05-12T15:47:02.710Z,7748
2018-05-12T15:48:04.532Z,7640
2018-05-12T15:49:06.364Z,7548
2018-05-12T15:50:08.246Z,7468
2018-05-12T15:51:10.153Z,7444
2018-05-12T15:52:12.048Z,7432
2018-05-12T15:53:26.187Z,7428
2018-05-12T15:54:28.089Z,7488
2018-05-12T15:55:29.970Z,7588
2018-05-12T15:56:31.869Z,7592
2018-05-12T15:57:33.689Z,7612
2018-05-12T15:58:35.504Z,7568
2018-05-12T15:59:37.382Z,7540
2018-05-12T16:00:39.263Z,7604
2018-05-12T16:01:41.164Z,7720
2018-05-12T16:02:55.340Z,7708
2018-05-12T16:03:57.248Z,7716
2018-05-12T16:04:59.150Z,7736
2018-05-12T16:06:01.051Z,7724
2018-05-12T16:07:02.882Z,7684
2018-05-12T16:08:04.710Z,7628
2018-05-12T16:09:06.591Z,7620
2018-05-12T16:10:08.493Z,7652
2018-05-12T16:11:10.418Z,7616
2018-05-12T16:12:24.646Z,7556
2018-05-12T16:13:26.482Z,7536
2018-05-12T16:14:28.361Z,7508
2018-05-12T16:15:30.245Z,7436
2018-05-12T16:16:32.062Z,7376
2018-05-12T16:17:33.896Z,7324
2018-05-12T16:18:35.784Z,7296
2018-05-12T16:19:37.692Z,7292
2018-05-12T16:20:39.555Z,7288
2018-05-12T16:21:53.714Z,7288
2018-05-12T16:22:55.583Z,7276
2018-05-12T16:23:57.458Z,7312
2018-05-12T16:24:59.337Z,7356
2018-05-12T16:26:01.175Z,7384
2018-05-12T16:27:03.000Z,7372
2018-05-12T16:28:04.908Z,7344
2018-05-12T16:29:06.815Z,7292
2018-05-12T16:30:08.716Z,7248
2018-05-12T16:31:22.948Z,7224
2018-05-12T16:32:24.784Z,7244
2018-05-12T16:33:26.661Z,7296
2018-05-12T16:34:28.553Z,7344
2018-05-12T16:35:30.375Z,7376
2018-05-12T16:36:32.187Z,7400
2018-05-12T16:37:34.082Z,7424
2018-05-12T16:38:35.956Z,7408
2018-05-12T16:39:37.862Z,7340
2018-05-12T16:40:52.010Z,7332
2018-05-12T16:41:53.913Z,7340
2018-05-12T16:42:55.794Z,7416
2018-05-12T16:43:57.800Z,7416
2018-05-12T16:44:59.619Z,7336
2018-05-12T16:46:01.451Z,7272
2018-05-12T16:47:03.344Z,7184
2018-05-12T16:48:05.244Z,7088
2018-05-12T16:49:07.129Z,7028
2018-05-12T16:50:21.284Z,6988
2018-05-12T16:51:23.157Z,6940
2018-05-12T16:52:25.040Z,6876
2018-05-12T16:53:26.923Z,6820
2018-05-12T16:54:28.763Z,6744
2018-05-12T16:55:30.599Z,6768
2018-05-12T16:56:32.502Z,6732
2018-05-12T16:57:34.398Z,6672
2018-05-12T16:58:36.277Z,6652
2018-05-12T16:59:50.425Z,6568
2018-05-12T17:00:52.310Z,6488
2018-05-12T17:01:54.185Z,6440
2018-05-12T17:02:56.090Z,6432
2018-05-12T17:03:57.927Z,6440
2018-05-12T17:04:59.741Z,6488
2018-05-12T17:06:01.642Z,6468
2018-05-12T17:07:03.524Z,6412
2018-05-12T17:08:50.753Z,6172
2018-05-12T17:09:52.675Z,6044
2018-05-12T17:10:54.576Z,5972
2018-05-12T17:11:56.450Z,6004
2018-05-12T17:12:58.265Z,6008
2018-05-12T17:14:00.083Z,5992
2018-05-12T17:15:01.979Z,5960
2018-05-12T17:16:03.880Z,5868
2018-05-12T17:17:05.780Z,5808
2018-05-12T17:18:19.940Z,5712
2018-05-12T17:19:21.844Z,5656
2018-05-12T17:20:23.731Z,5592
2018-05-12T17:21:25.636Z,5516
2018-05-12T17:22:27.451Z,5460
2018-05-12T17:23:29.272Z,5456
2018-05-12T17:24:31.172Z,5532
2018-05-12T17:25:33.058Z,5452
2018-05-12T17:26:34.969Z,5296
2018-05-12T17:27:49.142Z,5128
2018-05-12T17:28:51.026Z,5080
2018-05-12T17:29:52.954Z,5132
2018-05-12T17:30:54.825Z,5176
2018-05-12T17:31:56.658Z,4896
2018-05-12T17:32:58.515Z,4748
2018-05-12T17:34:00.392Z,4668
2018-05-12T17:35:02.311Z,4412
2018-05-12T17:36:04.210Z,4288
2018-05-12T17:37:18.362Z,4344
2018-05-12T17:38:20.245Z,4368
2018-05-12T17:39:22.150Z,4176
2018-05-12T17:40:24.062Z,3896
2018-05-12T17:41:25.904Z,3688
2018-05-12T17:42:27.753Z,3528
2018-05-12T17:43:29.652Z,3368
2018-05-12T17:44:31.558Z,3272
2018-05-12T17:45:33.471Z,3256
2018-05-12T17:46:47.645Z,3264
2018-05-12T17:47:49.524Z,3216
2018-05-12T17:48:51.405Z,3152
2018-05-12T17:49:53.291Z,3092
2018-05-12T17:50:55.130Z,2928
2018-05-12T17:51:56.966Z,2776
2018-05-12T17:52:58.852Z,2668
2018-05-12T17:54:00.768Z,2560
2018-05-12T17:55:02.672Z,2464
2018-05-12T17:56:16.850Z,2376
2018-05-12T17:57:18.734Z,2308
2018-05-12T17:58:20.636Z,2232
2018-05-12T17:59:22.515Z,2208
2018-05-12T18:00:24.362Z,2160
2018-05-12T18:01:26.219Z,2100
2018-05-12T18:02:28.134Z,2012
2018-05-12T18:03:30.032Z,1900
2018-05-12T18:04:31.938Z,1816
2018-05-12T18:05:46.091Z,1712
2018-05-12T18:06:47.984Z,1636
2018-05-12T18:07:49.890Z,1576
2018-05-12T18:08:51.793Z,1504
2018-05-12T18:09:53.635Z,1428
2018-05-12T18:10:55.458Z,1348
2018-05-12T18:11:57.355Z,1272
2018-05-12T18:12:59.261Z,1196
2018-05-12T18:14:01.164Z,1136
2018-05-12T18:15:15.325Z,1064
2018-05-12T18:16:17.221Z,1020
2018-05-12T18:17:19.189Z,976
2018-05-12T18:18:20.984Z,928
2018-05-12T18:19:22.790Z,880
2018-05-12T18:20:24.610Z,828
2018-05-12T18:21:26.515Z,776
2018-05-12T18:22:28.474Z,724
2018-05-12T18:23:30.347Z,676
2018-05-12T18:24:44.531Z,620
2018-05-12T18:25:46.432Z,572
2018-05-12T18:26:48.340Z,536
2018-05-12T18:27:50.246Z,500
2018-05-12T18:28:52.080Z,468
2018-05-12T18:29:53.922Z,436
2018-05-12T18:31:41.187Z,388
2018-05-12T18:32:43.085Z,360
2018-05-12T18:33:44.980Z,336
2018-05-12T18:34:46.873Z,312
2018-05-12T18:35:48.737Z,292
2018-05-12T18:36:50.547Z,272
2018-05-12T18:37:52.460Z,252
2018-05-12T18:38:54.365Z,232
2018-05-12T18:39:56.267Z,212
2018-05-12T18:41:10.447Z,192
2018-05-12T18:42:32.484Z,176
2018-05-12T18:45:31.534Z,128
2018-05-12T18:46:33.432Z,116
2018-05-12T18:47:35.314Z,104
2018-05-12T18:48:37.131Z,92
2018-05-12T18:49:38.957Z,84
2018-05-12T18:50:40.879Z,76
2018-05-12T18:51:42.768Z,64
2018-05-12T18:52:44.662Z,56
2018-05-12T18:53:58.820Z,48
2018-05-12T18:55:00.716Z,40
2018-05-12T18:56:02.610Z,36
2018-05-12T18:57:04.489Z,32
2018-05-12T18:58:06.305Z,28
2018-05-12T18:59:08.139Z,24
2018-05-12T19:00:10.039Z,24
2018-05-12T19:01:12.181Z,16
2018-05-12T19:02:14.125Z,16
2018-05-12T19:03:28.345Z,12
2018-05-12T19:04:30.293Z,12
2018-05-12T19:05:32.222Z,8
2018-05-12T19:06:34.095Z,8
2018-05-12T19:07:35.937Z,8
2018-05-12T19:08:37.764Z,8
2018-05-12T19:09:39.647Z,8
2018-05-12T19:10:41.523Z,4
2018-05-12T19:11:43.414Z,4
2018-05-12T19:12:57.603Z,4
2018-05-12T19:13:59.497Z,4
2018-05-12T19:15:01.371Z,0
2018-05-12T19:16:03.256Z,4
2018-05-12T19:17:05.120Z,4
2018-05-12T19:18:06.901Z,4
2018-05-12T19:19:08.826Z,4
2018-05-12T19:20:10.729Z,0
2018-05-12T19:21:12.623Z,0
2018-05-12T19:22:26.858Z,0
2018-05-12T19:23:28.740Z,0
2018-05-12T19:24:30.609Z,0
2018-05-12T19:25:32.485Z,0
2018-05-12T19:26:34.477Z,0
2018-05-12T19:27:36.245Z,0
2018-05-12T19:28:38.121Z,0
2018-05-12T19:29:40.022Z,0
2018-05-12T19:30:41.914Z,0
2018-05-12T19:31:56.059Z,0
2018-05-12T19:32:57.956Z,0
2018-05-12T19:33:59.941Z,0
2018-05-12T19:35:01.836Z,0
2018-05-12T19:36:03.643Z,0
2018-05-12T19:37:05.453Z,0
2018-05-12T19:38:07.330Z,0
2018-05-12T19:39:09.207Z,0
2018-05-12T19:40:11.163Z,0
2018-05-12T19:41:25.321Z,0
2018-05-12T19:42:27.194Z,0
2018-05-12T19:43:29.090Z,0
2018-05-12T19:44:30.959Z,0
2018-05-12T19:45:32.777Z,0
2018-05-12T19:46:34.619Z,0
2018-05-12T19:47:36.521Z,0
2018-05-12T19:48:38.477Z,0
2018-05-12T19:49:40.419Z,0
2018-05-12T19:50:54.516Z,0
2018-05-12T19:51:56.447Z,0
2018-05-12T19:52:58.347Z,0
2018-05-12T19:54:00.212Z,0
2018-05-12T19:55:02.038Z,0
2018-05-12T19:56:03.835Z,0
2018-05-12T19:57:05.734Z,0
2018-05-12T19:58:07.631Z,0
2018-05-12T19:59:09.520Z,0
2018-05-12T20:01:28.219Z,0
2018-05-12T20:02:30.112Z,0
2018-05-12T20:03:32.014Z,0
2018-05-12T20:04:34.174Z,0
2018-05-12T20:05:36.007Z,0
